메인 페이지
METAR-TAF:

METAR-TAF

공항 :

두바이 국제공항

두바이, 아랍에미리트

위도: 25-15-10N, 경도: 055-21-52E, 고도: 8m

현재 날씨관측

예보는 57분 전, 16:00시(UTC)에 발표되었습니다.
4kt풍과 풍을 오가는
온도 31°C
습도 59%
기압 1013 hPa
시정 10km 이상
1500m 미만 상공 구름 및 적란운 없음

METAR: OMDB 191600Z 01004KT 280V090 CAVOK 31/22 Q1013 NOSIG

시각: 20:57 (16:57 UTC)

예보

예보는 4 시간 53분 전, 12:04시(UTC)에 발표되었습니다.
예보 대상 시간: 19일 12시부터 20일 18시까지 (UTC)
북북서14kt
시정: 8000m
고도 4000ft 상공 구름 조금
확률 30% :
일시적
19일 12시부터 19일 17시까지 (UTC)
여러 방향의 바람 20kt, 순간 최대 풍속 35kt
시정: 1500m
고도 4000ft 상공 구름 조금, 적란운.
뇌우, 비, 날린먼지
전환 중
19일 14시부터 19일 16시까지 (UTC)
7kt
전환 중
20일 08시부터 20일 10시까지 (UTC)
북북서13kt
확률 30% :
일시적
20일 09시부터 20일 15시까지 (UTC)
여러 방향의 바람 20kt, 순간 최대 풍속 35kt
시정: 1500m
고도 4000ft 상공 구름 조금, 타워링 적운.
날린먼지
전환 중
20일 14시부터 20일 16시까지 (UTC)
7kt

TAF: OMDB 191204Z 1912/2018 33014KT 8000 FEW040 PROB30 TEMPO 1912/1917 VRB20G35KT 1500 TSRA BLDU FEW040CB BECMG 1914/1916 10007KT BECMG 2008/2010 34013KT PROB30 TEMPO 2009/2015 VRB20G35KT 1500 BLDU FEW040TCU BECMG 2014/2016 09007KT

4,000개 이상의 공항 관측 자료 및 예보 (METAR 및 TAF 보고).

지도상에서 검색 가능한 기상관측소가 노란 점과 빨간 점으로 표시되어 있습니다.

기상관측소 명을 보려면 표시 위로 마우스를 이동하세요.

날씨 관측과 예보를 보려면 클릭하세요.

지도 변경 : 확대하려면 엑스 표시가 있는 녹색 버튼, 축소하려면 빼기 표시가 있는 녹색 버튼, 다음 페이지의 지도를 보려면 녹색 화살표를 클릭하세요.


METAR-TAF: